Terminal Aerodrome Forecast
Issued by NWS Caribou, ME

Home | Current Version | Previous Version | Text Only | Print | Product List | Glossary On
Versions: 1 2 3 4 5 6 7 8 9 10 11 12 13 14 15 16 17 18 19
000
FTUS41 KCAR 241133
TAFCAR
TAF
KCAR 241133Z 2412/2512 16006KT P6SM OVC050
     FM241400 14010G20KT P6SM SCT015 OVC025
     FM241600 13008G20KT 5SM -RA BR SCT008 OVC015
     FM242200 14011KT 4SM -DZ BR OVC007
     FM250800 20012KT P6SM BKN030=

USA.gov is the U.S. government's official web portal to all federal, state and local government web resources and services.